Terminal Aerodrome Forecast
Issued by NWS

Home | Current Version | Previous Version | Text Only | Print | Product List | Glossary On
Versions: 1 2 3 4 5 6 7 8 9 10 11 12 13
779
FTUS45 KABQ 051127
TAFGUP
TAF
KGUP 051127Z 0512/0612 17006KT P6SM FEW200
     FM051800 18014G22KT P6SM SCT120
     FM052000 19017G27KT P6SM VCSH OVC100
     FM060300 17009KT P6SM SCT120=

USA.gov is the U.S. government's official web portal to all federal, state and local government web resources and services.